Tweed New Haven Airport New Haven US
ICAO: KHVN
IATA: HVN
Category: Medium
Scheduled Services: Yes

Elevation: 12 ft
TransAlt. 18000 ft.

Airport Communications:
NEW YORK APP/DEP:124.075
ATIS:133.65
CTAF:124.8
GND:121.7
BRIDGEPORT RDO:109.8
NEW HAVEN TWR:124.8
UNICOM:122.95

KHVN Zoom In..

Runways:

(A) RW 02 length 5600 ft width 150 ft
ILS 109.10 / hdg 16

(B) RW 14 length 3626 ft width 100 ft
---- / hdg 144

(C) RW 20 length 5600 ft width 150 ft
---- / hdg 196

(D) RW 32 length 3626 ft width 100 ft
---- / hdg 324

Location; KHVN
Day. 16 / Time. 17.53 Zulu
* Altimeter: 29.96
* Temperature: 31° c. 87.8°f.
* Wind from: 170° Speed 06 kn.
Dewpoint: 23° c.
Visibility: 10 Statute Miles.
Clouds: Clear (automated report).

KHVN 161753Z 17006KT 10SM CLR 31/23 A2996 RMK AO2 SLP144 T03060228 10311 20250 58011


Wind From 170°
Speed 06 kn.

 
 
jpsmedia.com for Web Design worldairports.se 2018   terms of use